Time;durP1;ratioP1;P1;durP2;ratioP2;P2;SDS_P1;SDS_P2;PMS_P1;PMS_P2;Temp;Humidity;BMP_temperature;BMP_pressure;BME280_temperature;BME280_humidity;BME280_pressure;Samples;Min_cycle;Max_cycle;Signal;HPM_P1;HPM_P2
2021/03/19 00:01:33;;;;;;;15.20;9.00;;;5.10;99.90;;;;;;4961605;28;20629;-74
2021/03/19 00:03:58;;;;;;;13.97;9.30;;;5.10;99.90;;;;;;4958599;28;20278;-75
2021/03/19 00:06:24;;;;;;;14.63;9.67;;;5.00;99.90;;;;;;4960426;28;20199;-75
2021/03/19 00:08:50;;;;;;;21.60;12.20;;;5.00;99.90;;;;;;4957125;28;20644;-74
2021/03/19 00:11:16;;;;;;;19.47;9.20;;;5.00;99.90;;;;;;4958860;28;20434;-75
2021/03/19 00:13:42;;;;;;;14.10;9.00;;;5.00;99.90;;;;;;4960556;28;20179;-75
2021/03/19 00:16:08;;;;;;;13.00;8.23;;;5.00;99.90;;;;;;4957999;28;20589;-75
2021/03/19 00:18:35;;;;;;;10.87;7.93;;;4.90;99.90;;;;;;4958763;28;20183;-75
2021/03/19 00:21:02;;;;;;;8.63;6.70;;;4.90;99.90;;;;;;4958646;28;20447;-75
2021/03/19 00:23:28;;;;;;;13.53;8.40;;;4.70;99.90;;;;;;4957318;28;20553;-74
2021/03/19 00:25:53;;;;;;;11.80;8.60;;;4.70;99.90;;;;;;4959435;28;20525;-75
2021/03/19 00:28:19;;;;;;;11.07;7.83;;;4.40;99.90;;;;;;4960362;28;20201;-75
2021/03/19 00:30:46;;;;;;;11.20;7.03;;;4.30;99.90;;;;;;4960382;28;20206;-75
2021/03/19 00:33:13;;;;;;;9.73;7.17;;;4.20;99.90;;;;;;4958613;28;20696;-74
2021/03/19 00:35:39;;;;;;;11.47;7.67;;;3.90;99.90;;;;;;4957708;28;21166;-75
2021/03/19 00:38:06;;;;;;;10.97;7.57;;;4.00;99.90;;;;;;4958848;28;20811;-76
2021/03/19 00:40:32;;;;;;;11.13;7.00;;;4.00;99.90;;;;;;4955674;28;20916;-74
2021/03/19 00:42:58;;;;;;;8.77;7.10;;;3.90;99.90;;;;;;4959664;28;20531;-74
2021/03/19 00:45:25;;;;;;;11.83;6.90;;;3.70;99.90;;;;;;4961509;28;20438;-74
2021/03/19 00:47:53;;;;;;;12.13;8.10;;;3.70;99.90;;;;;;4959902;28;20195;-74
2021/03/19 00:50:27;;;;;;;10.97;7.27;;;3.50;99.90;;;;;;4960070;28;20454;-74
2021/03/19 00:52:53;;;;;;;10.87;8.47;;;3.40;99.90;;;;;;4958447;28;20450;-74
2021/03/19 00:55:20;;;;;;;11.90;7.80;;;3.40;99.90;;;;;;4958860;28;20501;-75
2021/03/19 00:57:45;;;;;;;11.33;8.10;;;3.40;99.90;;;;;;4959155;28;20442;-74
2021/03/19 01:00:13;;;;;;;10.13;8.00;;;3.50;99.90;;;;;;4957766;28;20466;-74
2021/03/19 01:02:39;;;;;;;11.93;8.50;;;3.60;99.90;;;;;;4959822;28;20210;-76
2021/03/19 01:05:11;;;;;;;13.60;7.33;;;3.60;99.90;;;;;;4958303;28;20431;-74
2021/03/19 01:07:37;;;;;;;10.93;8.10;;;3.70;99.90;;;;;;4957391;28;20462;-74
2021/03/19 01:10:11;;;;;;;11.30;7.50;;;3.70;99.90;;;;;;4958097;28;20500;-75
2021/03/19 01:12:37;;;;;;;9.80;7.30;;;3.50;99.90;;;;;;4960880;28;20182;-75
2021/03/19 01:15:05;;;;;;;14.63;9.50;;;3.50;99.90;;;;;;4958502;28;20426;-75
2021/03/19 01:17:30;;;;;;;11.83;7.70;;;3.60;99.90;;;;;;4960240;28;20525;-74
2021/03/19 01:19:56;;;;;;;16.17;8.43;;;3.50;99.90;;;;;;4959156;28;21060;-75
2021/03/19 01:22:21;;;;;;;12.60;8.33;;;3.40;99.90;;;;;;4960870;28;20221;-75
2021/03/19 01:24:47;;;;;;;11.43;8.50;;;3.40;99.90;;;;;;4955489;28;20277;-75
2021/03/19 01:27:12;;;;;;;12.43;8.53;;;3.40;99.90;;;;;;4953283;28;20191;-76
2021/03/19 01:29:38;;;;;;;18.10;10.77;;;3.50;99.90;;;;;;4943540;28;20211;-74
2021/03/19 01:32:04;;;;;;;12.07;9.90;;;3.50;99.90;;;;;;4958542;28;20203;-74
2021/03/19 01:34:30;;;;;;;11.73;9.33;;;3.40;99.90;;;;;;4961979;28;20847;-75
2021/03/19 01:36:55;;;;;;;11.77;9.10;;;3.50;99.90;;;;;;4956524;28;20536;-75
2021/03/19 01:39:21;;;;;;;14.80;10.10;;;3.50;99.90;;;;;;4958913;28;20211;-75
2021/03/19 01:41:51;;;;;;;15.27;9.70;;;3.60;99.90;;;;;;4958679;28;20788;-75
2021/03/19 01:44:21;;;;;;;14.23;10.03;;;3.70;99.90;;;;;;4959725;28;20620;-74
2021/03/19 01:47:25;;;;;;;16.13;10.67;;;3.70;99.90;;;;;;4959586;28;20439;-75
2021/03/19 01:50:31;;;;;;;16.43;11.07;;;3.60;99.90;;;;;;4956066;28;20509;-74
2021/03/19 01:53:34;;;;;;;14.60;10.40;;;3.60;99.90;;;;;;4954736;28;20496;-74
2021/03/19 01:56:37;;;;;;;14.10;9.83;;;3.50;99.90;;;;;;4958738;28;20470;-75
2021/03/19 01:59:40;;;;;;;19.60;12.07;;;3.40;99.90;;;;;;4959546;28;20430;-74
2021/03/19 02:02:43;;;;;;;16.37;12.23;;;3.30;99.90;;;;;;4954960;28;20552;-74
2021/03/19 02:05:46;;;;;;;15.57;11.07;;;3.30;99.90;;;;;;4957774;28;20428;-75
2021/03/19 02:08:49;;;;;;;18.43;11.40;;;3.00;99.90;;;;;;4959857;28;21364;-75
2021/03/19 02:11:52;;;;;;;16.73;12.90;;;3.10;99.90;;;;;;4959154;28;21299;-75
2021/03/19 02:14:55;;;;;;;18.70;12.90;;;3.00;99.90;;;;;;4960258;28;20439;-75
2021/03/19 02:17:58;;;;;;;16.07;12.47;;;3.10;99.90;;;;;;4961383;28;20979;-75
2021/03/19 02:21:05;;;;;;;17.37;11.30;;;3.20;99.90;;;;;;4959505;28;20509;-75
2021/03/19 02:24:08;;;;;;;21.60;13.83;;;3.00;99.90;;;;;;4964395;28;20469;-73
2021/03/19 02:27:12;;;;;;;15.93;11.53;;;3.10;99.90;;;;;;4959982;28;21212;-75
2021/03/19 02:30:19;;;;;;;20.47;12.60;;;3.30;99.90;;;;;;4958642;28;20504;-75
2021/03/19 02:32:45;;;;;;;18.33;12.17;;;3.30;99.90;;;;;;4957849;28;20444;-75
2021/03/19 02:35:23;;;;;;;18.90;13.27;;;3.30;99.90;;;;;;4963819;28;20456;-74
2021/03/19 02:37:49;;;;;;;18.60;11.73;;;3.30;99.90;;;;;;4957690;28;20190;-75
2021/03/19 02:40:18;;;;;;;20.63;13.47;;;3.40;99.90;;;;;;4961452;28;20456;-76
2021/03/19 02:42:44;;;;;;;17.60;13.17;;;3.30;99.90;;;;;;4960880;28;20494;-75
2021/03/19 02:45:14;;;;;;;18.93;13.53;;;3.40;99.90;;;;;;4963896;28;20422;-76
2021/03/19 02:47:40;;;;;;;17.73;12.80;;;3.30;99.90;;;;;;4963171;28;20462;-74
2021/03/19 02:50:07;;;;;;;23.97;14.17;;;3.30;99.90;;;;;;4959389;28;20949;-74
2021/03/19 02:52:36;;;;;;;19.90;13.30;;;3.30;99.90;;;;;;4961359;28;20292;-74
2021/03/19 02:55:05;;;;;;;22.07;11.90;;;3.30;99.90;;;;;;4961289;28;20525;-74
2021/03/19 02:57:31;;;;;;;18.30;14.40;;;3.30;99.90;;;;;;4960121;28;20519;-74
2021/03/19 02:59:56;;;;;;;18.13;11.73;;;3.30;99.90;;;;;;4958784;28;20549;-74
2021/03/19 03:02:22;;;;;;;22.07;13.33;;;3.30;99.90;;;;;;4958536;28;20227;-73
2021/03/19 03:04:48;;;;;;;18.47;12.10;;;3.30;99.90;;;;;;4960868;28;20670;-74
2021/03/19 03:07:25;;;;;;;19.50;14.23;;;3.20;99.90;;;;;;4958271;28;20930;-75
2021/03/19 03:09:51;;;;;;;22.40;13.67;;;3.20;99.90;;;;;;4959869;28;20688;-75
2021/03/19 03:12:18;;;;;;;24.50;15.17;;;3.20;99.90;;;;;;4960451;28;20528;-74
2021/03/19 03:14:44;;;;;;;21.50;13.33;;;3.20;99.90;;;;;;4961264;28;20193;-75
2021/03/19 03:17:13;;;;;;;21.83;13.73;;;3.20;99.90;;;;;;4962225;28;20555;-75
2021/03/19 03:19:39;;;;;;;24.00;15.50;;;3.20;99.90;;;;;;4958023;28;20218;-74
2021/03/19 03:22:06;;;;;;;23.27;15.33;;;3.20;99.90;;;;;;4960973;28;21123;-74
2021/03/19 03:24:32;;;;;;;22.13;13.90;;;3.20;99.90;;;;;;4958840;28;21113;-74
2021/03/19 03:26:57;;;;;;;27.00;16.07;;;3.20;99.90;;;;;;4959665;28;20413;-75
2021/03/19 03:29:25;;;;;;;24.67;15.93;;;3.10;99.90;;;;;;4960884;28;20247;-75
2021/03/19 03:31:52;;;;;;;25.70;16.47;;;3.10;99.90;;;;;;4958456;28;20218;-74
2021/03/19 03:34:18;;;;;;;21.60;14.20;;;3.00;99.90;;;;;;4959969;28;20442;-75
2021/03/19 03:36:44;;;;;;;25.10;15.40;;;3.00;99.90;;;;;;4958026;28;20426;-75
2021/03/19 03:39:14;;;;;;;23.80;15.13;;;3.00;99.90;;;;;;4960607;28;20475;-75
2021/03/19 03:41:41;;;;;;;22.40;14.50;;;3.00;99.90;;;;;;4959008;28;20474;-73
2021/03/19 03:44:08;;;;;;;25.60;15.33;;;3.00;99.90;;;;;;4963952;28;20419;-74
2021/03/19 03:46:33;;;;;;;23.67;14.30;;;3.10;99.90;;;;;;4961335;28;20472;-74
2021/03/19 03:48:59;;;;;;;24.17;14.83;;;3.00;99.90;;;;;;4959741;28;20440;-74
2021/03/19 03:51:27;;;;;;;22.77;15.03;;;2.90;99.90;;;;;;4961485;28;20191;-76
2021/03/19 03:53:53;;;;;;;24.70;16.20;;;3.00;99.90;;;;;;4959860;28;20190;-76
2021/03/19 03:56:20;;;;;;;23.10;15.50;;;3.00;99.90;;;;;;4963883;28;20445;-73
2021/03/19 03:58:48;;;;;;;25.10;15.90;;;2.90;99.90;;;;;;4962871;28;20454;-75
2021/03/19 04:01:17;;;;;;;23.80;15.97;;;2.90;99.90;;;;;;4960042;28;20441;-75
2021/03/19 04:03:43;;;;;;;26.30;14.10;;;2.90;99.90;;;;;;4959575;28;21067;-75
2021/03/19 04:06:09;;;;;;;26.80;15.13;;;2.90;99.90;;;;;;4960462;28;20443;-76
2021/03/19 04:08:35;;;;;;;24.80;14.90;;;3.00;99.90;;;;;;4961711;28;20508;-73
2021/03/19 04:11:05;;;;;;;24.37;15.30;;;3.00;99.90;;;;;;4963140;28;20601;-74
2021/03/19 04:13:32;;;;;;;23.27;15.20;;;3.00;99.90;;;;;;4957107;28;20195;-74
2021/03/19 04:15:58;;;;;;;22.13;14.37;;;3.10;99.90;;;;;;4962112;28;20429;-74
2021/03/19 04:18:25;;;;;;;21.47;14.47;;;3.10;99.90;;;;;;4963638;28;20516;-74
2021/03/19 04:20:53;;;;;;;23.90;14.90;;;3.00;99.90;;;;;;4960450;28;20459;-75
2021/03/19 04:23:20;;;;;;;23.73;15.83;;;3.00;99.90;;;;;;4961201;28;20462;-75
2021/03/19 04:25:46;;;;;;;22.60;14.27;;;3.10;99.90;;;;;;4959106;28;20520;-75
2021/03/19 04:28:18;;;;;;;27.20;14.67;;;3.10;99.90;;;;;;4957642;28;20536;-75
2021/03/19 04:30:45;;;;;;;23.40;14.20;;;3.20;99.90;;;;;;4960595;28;20210;-74
2021/03/19 04:33:17;;;;;;;24.33;14.87;;;3.20;99.90;;;;;;4958509;28;20460;-75
2021/03/19 04:35:43;;;;;;;21.17;14.73;;;3.10;99.90;;;;;;4956374;28;20438;-75
2021/03/19 04:38:14;;;;;;;24.07;15.90;;;3.10;99.90;;;;;;4958068;28;20461;-75
2021/03/19 04:40:42;;;;;;;24.40;13.17;;;3.10;99.90;;;;;;4956391;28;20470;-74
2021/03/19 04:43:09;;;;;;;21.47;13.77;;;3.00;99.90;;;;;;4958096;28;20477;-74
2021/03/19 04:45:41;;;;;;;22.23;14.50;;;3.10;99.90;;;;;;4959534;28;20442;-76
2021/03/19 04:48:07;;;;;;;24.17;14.80;;;3.20;99.90;;;;;;4961593;28;20429;-75
2021/03/19 04:50:33;;;;;;;23.40;14.10;;;3.20;99.90;;;;;;4961141;28;20481;-75
2021/03/19 04:53:00;;;;;;;22.07;14.57;;;3.20;99.90;;;;;;4957220;28;20454;-75
2021/03/19 04:55:26;;;;;;;26.80;15.63;;;3.20;99.90;;;;;;4959490;28;20960;-76
2021/03/19 04:57:52;;;;;;;29.30;17.07;;;3.30;99.90;;;;;;4962690;28;20426;-74
2021/03/19 05:00:19;;;;;;;24.93;15.30;;;3.30;99.90;;;;;;4957516;28;20223;-75
2021/03/19 05:02:47;;;;;;;22.30;14.20;;;3.30;99.90;;;;;;4957453;28;21034;-75
2021/03/19 05:05:18;;;;;;;26.43;15.57;;;3.30;99.90;;;;;;4959878;28;20441;-74
2021/03/19 05:07:44;;;;;;;24.37;15.50;;;3.20;99.90;;;;;;4958439;28;20426;-74
2021/03/19 05:10:11;;;;;;;25.57;14.53;;;3.20;99.90;;;;;;4960706;28;20847;-74
2021/03/19 05:12:37;;;;;;;24.20;14.27;;;3.20;99.90;;;;;;4958761;28;20195;-74
2021/03/19 05:15:03;;;;;;;27.90;16.80;;;3.20;99.90;;;;;;4960205;28;20450;-74
2021/03/19 05:17:30;;;;;;;28.30;14.37;;;3.10;99.90;;;;;;4958964;28;20282;-75
2021/03/19 05:19:57;;;;;;;29.80;16.87;;;3.20;99.90;;;;;;4959818;28;20473;-74
2021/03/19 05:22:23;;;;;;;29.13;16.90;;;3.30;99.90;;;;;;4957380;28;20560;-74
2021/03/19 05:24:48;;;;;;;24.97;15.77;;;3.20;99.90;;;;;;4957901;28;20815;-74
2021/03/19 05:27:14;;;;;;;28.97;17.37;;;3.30;99.90;;;;;;4960342;28;20423;-75
2021/03/19 05:29:40;;;;;;;25.33;15.57;;;3.40;99.90;;;;;;4964211;28;20213;-75
2021/03/19 05:32:05;;;;;;;22.37;14.37;;;3.40;99.90;;;;;;4959262;28;20195;-75
2021/03/19 05:34:31;;;;;;;22.80;14.93;;;3.50;99.90;;;;;;4961147;28;20205;-75
2021/03/19 05:36:58;;;;;;;23.80;17.17;;;3.40;99.90;;;;;;4961562;28;20434;-74
2021/03/19 05:39:23;;;;;;;26.53;16.30;;;3.50;99.90;;;;;;4962843;28;20515;-75
2021/03/19 05:41:49;;;;;;;24.30;14.60;;;3.60;99.90;;;;;;4956734;28;20870;-75
2021/03/19 05:44:20;;;;;;;24.90;16.03;;;3.60;99.90;;;;;;4960634;28;20187;-76
2021/03/19 05:46:49;;;;;;;21.43;16.17;;;3.60;99.90;;;;;;4962957;28;20190;-75
2021/03/19 05:49:25;;;;;;;24.90;15.80;;;3.60;99.90;;;;;;4965142;28;20465;-75
2021/03/19 05:51:54;;;;;;;22.33;13.80;;;3.70;99.90;;;;;;4958881;28;20426;-75
2021/03/19 05:54:25;;;;;;;25.67;15.30;;;3.80;99.90;;;;;;4960974;28;20454;-76
2021/03/19 05:57:00;;;;;;;24.53;15.30;;;3.90;99.90;;;;;;4960857;28;20426;-75
2021/03/19 05:59:32;;;;;;;20.73;13.83;;;4.00;99.90;;;;;;4957374;28;21136;-76
2021/03/19 06:01:58;;;;;;;26.67;15.60;;;4.10;99.90;;;;;;4958808;28;20820;-74
2021/03/19 06:04:27;;;;;;;24.67;14.80;;;4.20;99.90;;;;;;4957188;28;20431;-74
2021/03/19 06:07:03;;;;;;;25.13;14.73;;;4.20;99.90;;;;;;4960451;28;20459;-75
2021/03/19 06:09:42;;;;;;;24.90;15.73;;;4.20;99.90;;;;;;4960143;28;20454;-75
2021/03/19 06:12:16;;;;;;;26.83;16.37;;;4.20;99.90;;;;;;4960191;28;20452;-75
2021/03/19 06:14:50;;;;;;;27.30;15.90;;;4.20;99.90;;;;;;4963687;28;20426;-75
2021/03/19 06:17:30;;;;;;;27.50;15.53;;;4.20;99.90;;;;;;4959274;28;20516;-76
2021/03/19 06:20:01;;;;;;;24.97;15.10;;;4.30;99.90;;;;;;4959932;28;21379;-75
2021/03/19 06:22:46;;;;;;;24.20;16.40;;;4.40;99.90;;;;;;4961275;28;20467;-75
2021/03/19 06:25:34;;;;;;;25.73;16.10;;;4.40;99.90;;;;;;4959817;28;20438;-76
2021/03/19 06:28:03;;;;;;;27.37;15.33;;;4.40;99.90;;;;;;4965704;28;20498;-75
2021/03/19 06:30:42;;;;;;;26.50;16.47;;;4.40;99.90;;;;;;4959371;28;20462;-76
2021/03/19 06:33:13;;;;;;;29.10;16.40;;;4.50;99.90;;;;;;4959422;28;20427;-74
2021/03/19 06:35:42;;;;;;;21.20;13.40;;;4.50;99.90;;;;;;4963624;28;20434;-75
2021/03/19 06:38:26;;;;;;;24.60;14.87;;;4.50;99.90;;;;;;4961693;28;20453;-75
2021/03/19 06:40:53;;;;;;;24.80;13.37;;;4.60;99.90;;;;;;4962900;28;20462;-74
2021/03/19 06:43:29;;;;;;;26.67;15.53;;;4.60;99.90;;;;;;4961008;28;20995;-74
2021/03/19 06:46:17;;;;;;;23.23;14.87;;;4.60;99.90;;;;;;4959064;28;20456;-68
2021/03/19 06:48:47;;;;;;;25.87;15.90;;;4.60;99.90;;;;;;4963362;28;20443;-80
2021/03/19 06:51:30;;;;;;;24.40;13.50;;;4.60;99.90;;;;;;4960994;28;20457;-74
2021/03/19 06:54:04;;;;;;;25.50;14.20;;;4.60;99.90;;;;;;4960280;28;20863;-76
2021/03/19 06:56:30;;;;;;;27.57;14.70;;;4.70;99.90;;;;;;4958483;28;20429;-77
2021/03/19 06:58:56;;;;;;;23.27;14.40;;;4.70;99.90;;;;;;4957547;28;20439;-77
2021/03/19 07:01:33;;;;;;;27.70;16.40;;;4.70;99.90;;;;;;4954003;28;21343;-75
2021/03/19 07:04:26;;;;;;;27.27;15.00;;;4.60;99.90;;;;;;4958837;28;20441;-76
2021/03/19 07:07:06;;;;;;;22.77;13.43;;;4.70;99.90;;;;;;4957097;28;20439;-75
2021/03/19 07:09:45;;;;;;;21.07;14.00;;;4.50;99.90;;;;;;4958783;28;20453;-77
2021/03/19 07:12:27;;;;;;;22.53;14.17;;;4.40;99.90;;;;;;4959878;28;20508;-76
2021/03/19 07:15:12;;;;;;;21.57;12.80;;;4.50;99.90;;;;;;4961051;28;20509;-76
2021/03/19 07:17:54;;;;;;;21.20;13.03;;;4.60;99.90;;;;;;4960062;28;20520;-79
2021/03/19 07:20:31;;;;;;;24.97;13.67;;;4.50;99.90;;;;;;4960623;28;20453;-77
2021/03/19 07:23:16;;;;;;;23.37;12.97;;;4.50;99.90;;;;;;4968037;28;20560;-74
2021/03/19 07:26:02;;;;;;;20.03;11.90;;;4.50;99.90;;;;;;4965829;28;20430;-75
2021/03/19 07:28:49;;;;;;;18.00;11.80;;;4.40;99.90;;;;;;4965049;28;20928;-74
2021/03/19 07:31:32;;;;;;;21.47;12.20;;;4.40;99.90;;;;;;4965721;28;20438;-77
2021/03/19 07:33:58;;;;;;;21.17;11.90;;;4.40;99.90;;;;;;4963988;28;20891;-75
2021/03/19 07:36:44;;;;;;;19.97;11.80;;;4.50;99.90;;;;;;4962634;28;20525;-76
2021/03/19 07:39:13;;;;;;;16.27;10.60;;;4.30;99.90;;;;;;4959204;28;20180;-75
2021/03/19 07:42:05;;;;;;;19.03;10.67;;;4.20;99.90;;;;;;4961720;28;20548;-75
2021/03/19 07:44:57;;;;;;;15.57;10.90;;;4.30;99.90;;;;;;4959999;28;20429;-76
2021/03/19 07:47:44;;;;;;;16.10;9.87;;;4.30;99.90;;;;;;4957835;28;20835;-74
2021/03/19 07:50:23;;;;;;;14.37;8.63;;;4.30;99.90;;;;;;4958853;28;20466;-77
2021/03/19 07:53:16;;;;;;;19.60;9.83;;;4.40;99.90;;;;;;4960383;28;20432;-76
2021/03/19 07:56:28;;;;;;;16.60;9.67;;;4.50;99.90;;;;;;4960807;28;20524;-76
2021/03/19 07:59:16;;;;;;;13.60;8.90;;;4.40;99.90;;;;;;4959347;28;20569;-76
2021/03/19 08:01:47;;;;;;;13.67;9.20;;;4.40;99.90;;;;;;4962215;28;20521;-77
2021/03/19 08:04:34;;;;;;;16.93;9.40;;;4.40;99.90;;;;;;4957836;28;20449;-77
2021/03/19 08:07:29;;;;;;;13.93;9.67;;;4.30;99.90;;;;;;4960961;28;20462;-78
2021/03/19 08:10:09;;;;;;;15.90;9.60;;;4.30;99.90;;;;;;4961987;28;20449;-77
2021/03/19 08:12:49;;;;;;;19.67;11.03;;;4.30;99.90;;;;;;4958418;28;20433;-76
2021/03/19 08:15:32;;;;;;;14.30;10.50;;;4.30;99.90;;;;;;4961463;28;20501;-77
2021/03/19 08:18:01;;;;;;;18.17;11.83;;;4.30;99.90;;;;;;4960970;28;20426;-78
2021/03/19 08:20:38;;;;;;;17.60;9.90;;;4.40;99.90;;;;;;4959932;28;20449;-77
2021/03/19 08:23:27;;;;;;;25.63;12.20;;;4.50;99.90;;;;;;4957532;28;20879;-76
2021/03/19 08:25:53;;;;;;;21.97;12.00;;;4.60;99.90;;;;;;4960667;28;20873;-77
2021/03/19 08:29:02;;;;;;;17.90;10.73;;;4.60;99.90;;;;;;4957169;28;20457;-78
2021/03/19 08:31:46;;;;;;;16.30;11.37;;;4.70;99.90;;;;;;4961829;28;20269;-75
2021/03/19 08:34:14;;;;;;;16.90;11.20;;;4.70;99.90;;;;;;4956427;28;20522;-77
2021/03/19 08:36:49;;;;;;;15.80;11.47;;;4.70;99.90;;;;;;4962027;28;20423;-76
2021/03/19 08:39:36;;;;;;;15.63;10.90;;;4.80;99.90;;;;;;4962772;28;20445;-77
2021/03/19 08:42:11;;;;;;;19.67;10.83;;;4.90;99.90;;;;;;4961351;28;20464;-78
2021/03/19 08:44:39;;;;;;;19.60;11.70;;;4.90;99.90;;;;;;4961333;28;20771;-79
2021/03/19 08:47:24;;;;;;;18.47;12.20;;;4.90;99.90;;;;;;4966310;28;20437;-79
2021/03/19 08:49:54;;;;;;;16.70;10.97;;;4.90;99.90;;;;;;4960701;28;20468;-78
2021/03/19 08:52:25;;;;;;;19.37;13.50;;;4.90;99.90;;;;;;4961742;28;20929;-77
2021/03/19 08:55:12;;;;;;;18.43;11.00;;;5.00;99.90;;;;;;4958131;28;20430;-79
2021/03/19 08:57:47;;;;;;;19.80;11.43;;;5.00;99.90;;;;;;4960820;28;20461;-79
2021/03/19 09:00:25;;;;;;;19.93;13.00;;;5.00;99.90;;;;;;4963369;28;21019;-77
2021/03/19 09:02:58;;;;;;;20.40;12.47;;;5.10;99.90;;;;;;4963976;28;20470;-77
2021/03/19 09:05:34;;;;;;;21.30;12.80;;;5.20;99.90;;;;;;4959766;28;20568;-78
2021/03/19 09:08:28;;;;;;;20.90;12.67;;;5.20;99.90;;;;;;4959012;28;20463;-78
2021/03/19 09:10:57;;;;;;;20.10;12.03;;;5.20;99.90;;;;;;4963129;28;20464;-77
2021/03/19 09:13:24;;;;;;;23.37;14.90;;;5.40;99.90;;;;;;4960446;28;20452;-77
2021/03/19 09:15:54;;;;;;;22.90;12.63;;;5.40;99.90;;;;;;4964361;28;20500;-78
2021/03/19 09:18:41;;;;;;;26.53;12.93;;;5.30;99.90;;;;;;4964735;28;20438;-78
2021/03/19 09:21:35;;;;;;;24.90;13.17;;;5.30;99.90;;;;;;4960530;28;20462;-79
2021/03/19 09:24:01;;;;;;;19.97;13.23;;;5.40;99.90;;;;;;4958286;28;20418;-79
2021/03/19 09:26:36;;;;;;;26.73;13.97;;;5.40;99.90;;;;;;4961585;28;20825;-76
2021/03/19 09:29:26;;;;;;;26.00;14.77;;;5.40;99.90;;;;;;4961617;28;20214;-78
2021/03/19 09:33:04;;;;;;;16.57;11.30;;;5.40;99.90;;;;;;4962027;28;20467;-78
2021/03/19 09:35:39;;;;;;;26.67;15.20;;;5.40;99.90;;;;;;4976641;28;20452;-80
2021/03/19 09:38:13;;;;;;;22.00;14.33;;;5.30;99.90;;;;;;4957327;28;21004;-77
2021/03/19 09:40:49;;;;;;;31.90;15.53;;;5.30;99.90;;;;;;4965725;28;20488;-78
2021/03/19 09:43:49;;;;;;;26.67;15.00;;;5.10;99.90;;;;;;4960728;28;21128;-77
2021/03/19 09:46:24;;;;;;;26.50;14.73;;;5.30;99.90;;;;;;4964118;28;20422;-76
2021/03/19 09:48:59;;;;;;;23.90;12.77;;;5.20;99.90;;;;;;4964790;28;20545;-78
2021/03/19 09:51:45;;;;;;;25.63;15.53;;;5.20;99.90;;;;;;4967332;28;20429;-80
2021/03/19 09:54:29;;;;;;;23.23;14.33;;;5.30;99.90;;;;;;4971603;28;20440;-79
2021/03/19 09:57:04;;;;;;;26.53;15.40;;;5.40;99.90;;;;;;4988326;28;20463;-76
2021/03/19 09:59:34;;;;;;;27.83;15.10;;;5.20;99.90;;;;;;4975470;28;20456;-78
2021/03/19 10:02:00;;;;;;;27.27;15.13;;;5.00;99.90;;;;;;4992061;28;20450;-76
2021/03/19 10:04:39;;;;;;;23.00;13.90;;;5.20;99.90;;;;;;4975099;28;20451;-78
2021/03/19 10:07:23;;;;;;;26.00;14.17;;;5.30;99.90;;;;;;4967475;28;20955;-78
2021/03/19 10:09:53;;;;;;;20.90;13.57;;;5.40;99.90;;;;;;4966506;28;20458;-78
2021/03/19 10:12:22;;;;;;;21.70;13.37;;;5.40;99.90;;;;;;4961349;28;20517;-77
2021/03/19 10:14:50;;;;;;;20.90;13.00;;;5.40;99.90;;;;;;4967149;28;20434;-78
2021/03/19 10:17:29;;;;;;;25.70;14.70;;;5.60;99.90;;;;;;4972340;28;20857;-78
2021/03/19 10:20:18;;;;;;;17.93;11.60;;;5.80;99.90;;;;;;4971946;28;20469;-79
2021/03/19 10:22:47;;;;;;;23.97;13.77;;;5.80;99.90;;;;;;4967032;28;20482;-78
2021/03/19 10:25:12;;;;;;;22.50;13.10;;;5.70;99.90;;;;;;4971107;28;20481;-76
2021/03/19 10:27:47;;;;;;;19.10;11.50;;;5.70;99.90;;;;;;4967852;28;20443;-77
2021/03/19 10:30:20;;;;;;;12.40;7.97;;;5.70;99.90;;;;;;4968808;28;20696;-78
2021/03/19 10:32:46;;;;;;;8.00;5.60;;;5.80;99.90;;;;;;4967820;28;20429;-78
2021/03/19 10:35:18;;;;;;;7.50;5.20;;;5.90;99.90;;;;;;4974569;28;20453;-77
2021/03/19 10:37:54;;;;;;;6.93;5.53;;;6.20;99.90;;;;;;4966895;28;20508;-79
2021/03/19 10:40:38;;;;;;;9.30;6.57;;;6.30;99.90;;;;;;4969277;28;20962;-77
2021/03/19 10:43:13;;;;;;;8.20;6.13;;;6.40;99.90;;;;;;4965141;28;20966;-78
2021/03/19 10:45:50;;;;;;;7.13;6.43;;;6.00;99.90;;;;;;4968013;28;20541;-78
2021/03/19 10:48:42;;;;;;;7.17;5.90;;;5.30;99.90;;;;;;4955343;28;20441;-81
2021/03/19 10:51:11;;;;;;;11.33;6.70;;;5.10;99.90;;;;;;4962910;28;20976;-78
2021/03/19 10:54:04;;;;;;;8.80;6.53;;;5.20;99.90;;;;;;4959077;28;20454;-79
2021/03/19 10:56:30;;;;;;;9.10;6.70;;;5.20;99.90;;;;;;4953536;28;20446;-77
2021/03/19 10:59:25;;;;;;;9.73;6.90;;;5.50;99.90;;;;;;4957502;28;20477;-78
2021/03/19 11:01:51;;;;;;;11.30;8.07;;;5.80;99.90;;;;;;4954760;28;20464;-78
2021/03/19 11:04:33;;;;;;;11.70;6.80;;;6.00;99.90;;;;;;4960376;28;20446;-78
2021/03/19 11:07:14;;;;;;;12.00;7.53;;;6.20;99.90;;;;;;4960929;28;20458;-78
2021/03/19 11:10:16;;;;;;;8.97;6.87;;;6.20;99.90;;;;;;4960187;28;20454;-78
2021/03/19 11:12:50;;;;;;;9.73;7.07;;;6.40;99.90;;;;;;4960745;28;20504;-77
2021/03/19 11:15:41;;;;;;;10.00;7.20;;;6.30;99.90;;;;;;4962619;28;20879;-78
2021/03/19 11:18:23;;;;;;;9.10;6.40;;;6.50;99.90;;;;;;4954029;28;20465;-72
2021/03/19 11:20:54;;;;;;;11.10;7.37;;;6.50;99.90;;;;;;4957306;28;20558;-75
2021/03/19 11:23:37;;;;;;;10.50;8.13;;;6.80;99.90;;;;;;4961559;28;20556;-80
2021/03/19 11:26:18;;;;;;;10.03;7.50;;;6.70;99.90;;;;;;4959778;28;20430;-77
2021/03/19 11:28:44;;;;;;;8.77;5.87;;;6.80;99.90;;;;;;4956865;28;20489;-79
2021/03/19 11:31:16;;;;;;;9.17;7.20;;;6.60;99.90;;;;;;4962137;28;20450;-77
2021/03/19 11:34:00;;;;;;;10.30;7.00;;;6.50;99.90;;;;;;4962957;28;20493;-78
2021/03/19 11:36:30;;;;;;;9.17;6.50;;;6.40;99.90;;;;;;4958812;28;20443;-78
2021/03/19 11:39:11;;;;;;;7.77;6.57;;;6.20;99.90;;;;;;4962365;28;20464;-78
2021/03/19 11:41:41;;;;;;;11.70;7.13;;;5.90;99.90;;;;;;4957992;28;20439;-79
2021/03/19 11:44:07;;;;;;;9.57;6.83;;;5.80;99.90;;;;;;4958557;28;20438;-76
2021/03/19 11:46:32;;;;;;;11.50;7.67;;;5.80;99.90;;;;;;4961796;28;20497;-75
2021/03/19 11:48:58;;;;;;;9.77;6.50;;;5.80;99.90;;;;;;4960560;28;20479;-77
2021/03/19 11:51:31;;;;;;;10.00;7.27;;;5.60;99.90;;;;;;4959708;28;20190;-76
2021/03/19 11:54:01;;;;;;;10.03;6.57;;;5.70;99.90;;;;;;4959193;28;20461;-76
2021/03/19 11:56:29;;;;;;;7.83;5.77;;;5.80;99.90;;;;;;4959815;28;20442;-74
2021/03/19 11:58:56;;;;;;;8.20;6.53;;;5.80;99.90;;;;;;4958823;28;20445;-76
2021/03/19 12:01:21;;;;;;;10.47;7.10;;;5.90;99.90;;;;;;4957988;28;20466;-76
2021/03/19 12:03:50;;;;;;;10.00;7.20;;;5.90;99.90;;;;;;4963108;28;20469;-76
2021/03/19 12:06:19;;;;;;;9.17;6.83;;;5.90;99.90;;;;;;4959342;28;20433;-74
2021/03/19 12:08:46;;;;;;;9.83;6.43;;;6.10;99.90;;;;;;4961362;28;20453;-75
2021/03/19 12:11:47;;;;;;;8.93;7.33;;;6.10;99.90;;;;;;4959408;28;20995;-75
2021/03/19 12:14:25;;;;;;;8.13;6.67;;;6.40;99.90;;;;;;4949595;28;20449;-73
2021/03/19 12:16:52;;;;;;;8.70;6.60;;;6.40;99.90;;;;;;4958084;28;20928;-74
2021/03/19 12:19:19;;;;;;;10.43;7.70;;;6.60;99.90;;;;;;4955451;28;20458;-74
2021/03/19 12:21:44;;;;;;;8.57;6.27;;;6.70;99.90;;;;;;4955269;28;20512;-74
2021/03/19 12:24:10;;;;;;;9.07;6.80;;;6.80;99.90;;;;;;4955510;28;20439;-73
2021/03/19 12:26:36;;;;;;;8.20;6.50;;;7.00;99.90;;;;;;4958248;28;20457;-73
2021/03/19 12:29:02;;;;;;;8.93;6.53;;;7.20;99.90;;;;;;4959880;28;21573;-73
2021/03/19 12:31:28;;;;;;;8.17;6.30;;;8.60;99.90;;;;;;4960996;28;20294;-74
2021/03/19 12:33:54;;;;;;;6.83;6.20;;;9.70;99.90;;;;;;4958360;28;21037;-73
2021/03/19 12:36:20;;;;;;;7.57;5.90;;;10.40;99.90;;;;;;4961188;28;20201;-74
2021/03/19 12:38:45;;;;;;;7.53;6.67;;;10.10;99.90;;;;;;4958321;28;20194;-74
2021/03/19 12:41:12;;;;;;;7.60;6.10;;;9.20;99.90;;;;;;4958989;28;20739;-74
2021/03/19 12:43:40;;;;;;;7.60;5.93;;;8.80;99.90;;;;;;4958347;28;20221;-75
2021/03/19 12:46:06;;;;;;;7.27;6.20;;;8.80;99.90;;;;;;4955573;28;20454;-74
2021/03/19 12:48:32;;;;;;;7.93;6.17;;;8.60;99.90;;;;;;4956128;28;20449;-73
2021/03/19 12:50:58;;;;;;;8.10;6.53;;;8.80;99.90;;;;;;4959553;28;20453;-73
2021/03/19 12:53:24;;;;;;;10.07;7.47;;;8.40;99.90;;;;;;4955616;28;20445;-72
2021/03/19 12:55:50;;;;;;;8.07;6.80;;;8.30;99.90;;;;;;4956287;28;20195;-73
2021/03/19 12:58:19;;;;;;;9.00;7.07;;;8.00;99.90;;;;;;4953908;28;20577;-73
2021/03/19 13:00:45;;;;;;;8.27;6.40;;;8.30;99.90;;;;;;4960286;28;21087;-74
2021/03/19 13:03:11;;;;;;;7.93;6.33;;;9.40;99.90;;;;;;4958090;28;20568;-74
2021/03/19 13:05:37;;;;;;;7.77;5.93;;;11.30;99.90;;;;;;4956681;28;20322;-73
2021/03/19 13:08:04;;;;;;;7.40;6.07;;;12.40;99.90;;;;;;4960881;28;20314;-73
2021/03/19 13:10:33;;;;;;;6.30;5.60;;;13.40;99.90;;;;;;4957556;28;20463;-74
2021/03/19 13:12:59;;;;;;;6.40;5.53;;;11.10;99.90;;;;;;4960995;28;20480;-75
2021/03/19 13:15:28;;;;;;;6.00;5.03;;;10.00;99.90;;;;;;4956963;28;20501;-73
2021/03/19 13:17:54;;;;;;;7.27;5.30;;;9.10;99.90;;;;;;4958921;28;20495;-72